Latest Weather Observations for Yarram Airport

IDV60801

Issued at 3:31 pm EST Friday 4 September 2015 (issued every 30 minutes, with the page automatically refreshed every 10 minutes)

About weather observations | Map of weather stations | Latest weather observations for VIC | Other Formats
Station Details ID: 085151 Name: YARRAM AIRPORT Lat: -38.56 Lon: 146.75 Height: 17.9 m
Data from the previous 72 hours. | See also: Recent months at Yarram Airport
Date/Time
EST
Temp
°C
App
Temp
°C
Dew
Point
Rel
Hum
%
Delta-T
°C
Wind Press
QNH
hPa
Press
MSL
hPa
Rain
since 9 am
mm
Dir
 
Spd
km/h
Gust
km/h
Spd
kts
Gust
kts
04/03:30pm 11.7 4.8 4.4 61 3.3 WSW 30 41 16 22 1022.4 1022.5 0.0
04/03:00pm 12.4 5.4 3.9 56 3.8 WSW 30 41 16 22 1022.3 1022.4 0.0
04/02:30pm 12.7 5.3 4.2 56 3.9 WSW 32 43 17 23 1022.4 1022.5 0.0
04/02:00pm 11.9 5.0 4.4 60 3.4 WSW 30 44 16 24 1022.4 1022.5 0.0
04/01:30pm 12.4 5.6 4.9 60 3.4 WSW 30 41 16 22 1022.6 1022.7 0.0
04/01:00pm 12.8 7.1 5.0 59 3.6 W 24 33 13 18 1022.9 1023.0 0.0
04/12:30pm 11.9 5.9 5.1 63 3.1 WSW 26 39 14 21 1023.3 1023.4 0.0
04/12:00pm 11.9 5.4 4.6 61 3.3 WSW 28 35 15 19 1023.7 1023.8 0.0
04/11:30am 11.4 5.3 4.6 63 3.1 WSW 26 32 14 17 1024.0 1024.1 0.0
04/11:00am 11.5 5.7 4.3 61 3.2 WSW 24 32 13 17 1024.3 1024.4 0.0
04/10:30am 11.0 5.5 4.0 62 3.1 WSW 22 28 12 15 1024.4 1024.5 0.0
04/10:00am 10.5 5.5 4.6 67 2.6 WSW 20 32 11 17 1024.5 1024.6 0.0
04/09:30am 10.4 4.9 3.9 64 2.9 WSW 22 35 12 19 1024.5 1024.6 0.0
04/09:00am 10.5 4.8 4.9 68 2.5 WSW 24 32 13 17 1024.4 1024.5 0.0
04/08:30am 9.5 5.2 5.1 74 2.0 W 17 20 9 11 1024.3 1024.4 0.0
04/08:00am 8.8 4.9 5.4 79 1.5 W 15 19 8 10 1024.2 1024.3 0.0
04/07:30am 8.4 4.4 4.8 78 1.6 W 15 22 8 12 1023.9 1024.0 0.0
04/07:00am 7.3 3.6 4.6 83 1.2 W 13 17 7 9 1023.4 1023.5 0.0
04/06:30am 6.1 2.4 4.4 89 0.7 WNW 13 17 7 9 1023.1 1023.2 0.0
04/06:00am 4.8 0.1 3.3 90 0.6 WNW 17 19 9 10 1023.0 1023.1 0.0
04/05:30am 4.8 0.5 3.5 91 0.5 WNW 15 17 8 9 1022.7 1022.8 0.0
04/05:00am 5.0 0.8 3.7 91 0.5 WNW 15 17 8 9 1022.6 1022.7 0.0
04/04:30am 5.6 1.8 3.9 89 0.7 W 13 19 7 10 1022.3 1022.4 0.0
04/04:00am 6.3 1.9 4.6 89 0.7 WNW 17 20 9 11 1022.0 1022.1 0.0
04/03:30am 6.8 2.4 5.0 88 0.8 WNW 17 20 9 11 1021.8 1021.9 0.0
04/03:00am 7.5 4.0 5.5 87 0.9 WNW 13 17 7 9 1021.9 1022.0 0.0
04/02:30am 7.3 3.5 5.6 89 0.8 WNW 15 17 8 9 1022.0 1022.1 0.0
04/02:00am 7.5 4.1 5.8 89 0.8 W 13 17 7 9 1022.1 1022.2 0.0
04/01:30am 6.8 3.2 5.1 89 0.7 WNW 13 15 7 8 1022.1 1022.2 0.0
04/01:00am 7.6 4.1 5.6 87 0.9 W 13 17 7 9 1022.0 1022.1 0.0
04/12:30am 7.9 4.5 5.9 87 0.9 W 13 15 7 8 1021.8 1021.9 0.0
04/12:00am 8.3 4.5 5.9 85 1.1 WNW 15 19 8 10 1021.6 1021.7 0.0
 
Date/Time
EST
Temp
°C
App
Temp
°C
Dew
Point
Rel
Hum
%
Delta-T
°C
Wind Press
QNH
hPa
Press
MSL
hPa
Rain
since 9 am
mm
Dir
 
Spd
km/h
Gust
km/h
Spd
kts
Gust
kts
03/11:30pm 9.1 4.7 6.4 83 1.2 W 19 24 10 13 1021.4 1021.5 0.0
03/11:00pm 9.6 5.0 6.7 82 1.3 W 20 30 11 16 1021.2 1021.3 0.0
03/10:30pm 10.2 5.9 7.1 81 1.5 W 19 30 10 16 1021.2 1021.3 0.0
03/10:00pm 10.1 6.2 7.3 83 1.3 WNW 17 24 9 13 1021.0 1021.1 0.0
03/09:30pm 10.0 6.5 7.4 84 1.2 W 15 22 8 12 1020.7 1020.8 0.0
03/09:00pm 10.0 6.6 7.6 85 1.1 W 15 19 8 10 1020.5 1020.6 0.0
03/08:30pm 10.4 7.9 8.0 85 1.2 W 11 17 6 9 1020.1 1020.2 0.0
03/08:00pm 10.7 8.2 8.3 85 1.2 W 11 15 6 8 1019.9 1020.0 0.0
03/07:30pm 10.7 8.7 8.5 86 1.1 W 9 11 5 6 1019.6 1019.7 0.0
03/07:00pm 10.8 8.4 8.6 86 1.1 WSW 11 13 6 7 1019.3 1019.4 0.0
03/06:30pm 11.0 8.3 8.9 87 1.0 SW 13 17 7 9 1018.9 1019.0 0.0
03/06:00pm 11.6 7.7 8.6 82 1.5 WSW 19 24 10 13 1018.2 1018.2 0.0
03/05:30pm 11.8 8.3 8.6 81 1.6 WSW 17 26 9 14 1017.6 1017.6 0.0
03/05:00pm 12.0 8.8 8.5 79 1.7 WSW 15 26 8 14 1016.9 1016.9 0.0
03/04:30pm 12.2 8.4 9.2 82 1.5 SW 19 26 10 14 1016.4 1016.4 0.0
03/04:00pm 12.4 8.4 9.2 81 1.6 SW 20 24 11 13 1015.8 1015.8 0.0
03/03:30pm 12.8 9.0 9.8 82 1.5 SW 20 30 11 16 1015.4 1015.4 0.0
03/03:00pm 12.5 8.6 9.3 81 1.6 SSW 20 26 11 14 1015.0 1015.0 0.0
03/02:30pm 13.0 8.8 9.8 81 1.6 SW 22 32 12 17 1014.6 1014.6 0.0
03/02:00pm 13.5 8.8 9.4 76 2.1 SSW 24 30 13 16 1014.2 1014.2 0.0
03/01:30pm 14.3 10.5 9.9 75 2.3 SSW 20 26 11 14 1013.9 1013.9 0.0
03/01:00pm 13.7 9.6 10.1 79 1.9 SW 22 28 12 15 1013.9 1013.9 0.0
03/12:30pm 13.4 9.3 10.0 80 1.8 SW 22 30 12 16 1013.9 1013.9 0.0
03/12:00pm 13.1 9.3 9.9 81 1.6 WSW 20 28 11 15 1013.9 1013.9 0.0
03/11:30am 13.6 9.5 10.0 79 1.9 WSW 22 30 12 16 1013.3 1013.3 0.0
03/11:00am 13.5 9.6 9.4 76 2.1 WSW 20 30 11 16 1012.9 1012.9 0.0
03/10:30am 13.3 8.6 9.2 76 2.1 SW 24 33 13 18 1012.5 1012.5 0.0
03/10:00am 13.1 8.7 9.0 76 2.1 SW 22 28 12 15 1012.1 1012.1 0.0
03/09:30am 12.5 10.3 9.5 82 1.5 WSW 11 24 6 13 1011.8 1011.8 0.0
03/09:00am 11.6 8.9 10.3 92 0.7 WSW 15 20 8 11 1011.1 1011.1 0.0
03/08:30am 11.3 8.3 10.5 95 0.4 WSW 17 24 9 13 1010.6 1010.6 0.0
03/08:00am 10.7 8.3 10.1 96 0.3 W 13 15 7 8 1010.2 1010.2 0.0
03/07:30am 10.1 7.5 9.5 96 0.3 W 13 15 7 8 1009.9 1009.9 0.0
03/07:00am 9.5 6.7 8.7 95 0.4 W 13 15 7 8 1009.5 1009.5 0.0
03/06:30am 9.7 7.0 8.9 95 0.4 W 13 19 7 10 1009.3 1009.3 0.0
03/06:00am 9.2 6.3 8.3 94 0.4 W 13 17 7 9 1008.7 1008.7 0.0
03/05:30am 9.2 6.3 8.3 94 0.4 W 13 17 7 9 1008.4 1008.4 0.0
03/05:00am 8.6 5.6 7.7 94 0.4 WSW 13 17 7 9 1008.1 1008.1 0.0
03/04:30am 8.4 5.7 7.3 93 0.5 W 11 15 6 8 1008.3 1008.3 0.0
03/04:00am 7.6 4.3 6.4 92 0.5 WNW 13 17 7 9 1007.8 1007.8 0.0
03/03:30am 7.3 3.9 5.9 91 0.6 W 13 17 7 9 1007.5 1007.5 0.0
03/03:00am 6.1 2.0 4.6 90 0.6 W 15 17 8 9 1007.2 1007.2 0.0
03/02:30am 5.9 2.6 4.7 92 0.5 W 11 13 6 7 1007.4 1007.4 0.0
03/02:00am 6.4 2.9 5.4 93 0.4 WNW 13 15 7 8 1007.8 1007.8 0.0
03/01:30am 6.6 3.1 5.6 93 0.4 W 13 15 7 8 1008.1 1008.1 0.0
03/01:00am 6.2 3.0 5.2 93 0.4 WNW 11 13 6 7 1008.1 1008.1 0.0
03/12:30am 6.3 3.1 5.1 92 0.5 W 11 13 6 7 1008.1 1008.1 0.0
03/12:00am 6.8 5.8 5.6 92 0.5 CALM 0 0 0 0 1007.9 1007.9 0.0
 
Date/Time
EST
Temp
°C
App
Temp
°C
Dew
Point
Rel
Hum
%
Delta-T
°C
Wind Press
QNH
hPa
Press
MSL
hPa
Rain
since 9 am
mm
Dir
 
Spd
km/h
Gust
km/h
Spd
kts
Gust
kts
02/11:30pm 7.5 6.7 6.3 92 0.5 CALM 0 0 0 0 1008.1 1008.1 0.0
02/11:00pm 7.9 7.1 6.5 91 0.6 CALM 0 0 0 0 1008.3 1008.3 0.0
02/10:30pm 8.4 7.7 6.9 90 0.7 CALM 0 0 0 0 1008.7 1008.7 0.0
02/10:00pm 8.5 7.8 7.1 91 0.7 CALM 0 0 0 0 1008.9 1008.9 0.0
02/09:30pm 8.7 8.1 7.5 92 0.6 CALM 0 0 0 0 1009.1 1009.1 0.0
02/09:00pm 8.5 7.8 7.1 91 0.7 CALM 0 0 0 0 1009.0 1009.0 0.0
02/08:30pm 8.5 7.8 7.0 90 0.7 CALM 0 0 0 0 1009.3 1009.3 0.0
02/08:00pm 8.5 7.4 7.1 91 0.7 N 2 6 1 3 1009.1 1009.1 0.0
02/07:30pm 8.4 7.6 6.4 87 0.9 CALM 0 7 0 4 1009.0 1009.0 0.0
02/07:00pm 7.8 5.7 5.6 86 1.0 NNW 6 7 3 4 1009.1 1009.1 0.0
02/06:30pm 9.1 6.2 6.5 84 1.2 NE 11 13 6 7 1008.8 1008.8 0.0
02/06:00pm 9.7 6.7 6.2 79 1.6 ENE 11 15 6 8 1008.7 1008.7 0.0
02/05:30pm 10.8 7.4 6.0 72 2.2 ENE 13 17 7 9 1008.5 1008.5 0.0
02/05:00pm 11.8 8.7 7.1 73 2.3 ENE 13 17 7 9 1008.5 1008.5 0.0
02/04:30pm 13.1 9.2 7.1 67 2.9 E 17 24 9 13 1008.6 1008.6 0.0
02/04:00pm 14.1 9.6 6.2 59 3.8 E 19 28 10 15 1008.7 1008.7 0.0
02/03:30pm 15.2 11.1 8.0 62 3.6 E 19 26 10 14 1008.4 1008.4 0.0
02/03:00pm 15.9 11.9 8.4 61 3.8 E 19 24 10 13 1008.7 1008.7 0.0
02/02:30pm 16.2 12.4 8.9 62 3.7 E 19 26 10 14 1009.0 1009.0 0.0
02/02:00pm 15.6 11.7 8.6 63 3.6 E 19 26 10 14 1009.4 1009.4 0.0
02/01:30pm 15.3 11.4 8.5 64 3.4 E 19 28 10 15 1009.6 1009.6 0.0
02/01:00pm 17.0 13.3 9.4 61 4.0 E 19 26 10 14 1010.2 1010.2 0.0
02/12:30pm 17.6 14.4 8.5 55 4.7 E 15 20 8 11 1010.7 1010.7 0.0
02/12:00pm 18.3 14.9 5.8 44 6.1 NE 13 19 7 10 1011.2 1011.2 0.0
02/11:30am 17.4 13.9 5.4 45 5.8 ENE 13 19 7 10 1011.5 1011.5 0.0
02/11:00am 16.8 13.2 6.9 52 4.9 NE 15 20 8 11 1012.2 1012.2 0.0
02/10:30am 16.2 13.0 6.9 54 4.6 ENE 13 17 7 9 1012.3 1012.3 0.0
02/10:00am 15.0 12.3 7.3 60 3.8 ENE 11 15 6 8 1012.6 1012.6 0.0
02/09:30am 14.1 13.8 8.7 70 2.7 CALM 0 2 0 1 1013.0 1013.0 0.0
02/09:00am 11.1 9.6 8.3 83 1.4 WSW 6 7 3 4 1013.2 1013.2 0.0
02/08:30am 11.0 8.3 7.5 79 1.7 NNE 11 15 6 8 1013.2 1013.2 0.0
02/08:28am 10.9 8.6 7.6 80 1.6 NNE 9 15 5 8 1013.2 1013.2 0.0
02/08:00am 5.9 4.8 5.2 95 0.3 CALM 0 0 0 0 1013.4 1013.4 0.0
02/07:30am 4.0 0.9 3.4 96 0.2 NE 9 11 5 6 1013.4 1013.4 0.0
02/07:00am 2.5 -1.0 1.5 93 0.4 E 9 11 5 6 1013.4 1013.4 0.0
02/06:30am 1.7 -1.5 1.0 95 0.3 ENE 7 9 4 5 1013.5 1013.5 0.0
02/06:00am 1.6 -1.4 1.0 96 0.2 E 6 11 3 6 1013.5 1013.5 0.0
02/05:30am 1.5 -0.4 0.6 94 0.3 CALM 0 0 0 0 1013.6 1013.6 0.0
02/05:00am 2.0 -0.2 0.8 92 0.4 ENE 2 7 1 4 1013.6 1013.6 0.0
02/04:30am 2.9 -0.2 1.4 90 0.6 ENE 7 11 4 6 1013.4 1013.4 0.0
02/04:00am 2.6 -1.0 0.7 87 0.7 ENE 9 9 5 5 1013.4 1013.4 0.0
02/03:30am 4.1 0.8 2.5 89 0.6 E 9 13 5 7 1013.5 1013.5 0.0
02/03:00am 4.9 0.9 3.1 88 0.7 ENE 13 15 7 8 1013.7 1013.7 0.0
02/02:30am 4.6 1.0 2.9 89 0.7 ENE 11 15 6 8 1014.0 1014.0 0.0
02/02:00am 4.7 1.1 3.0 89 0.7 ENE 11 13 6 7 1014.4 1014.4 0.0
02/01:30am 4.2 0.6 2.9 91 0.5 ENE 11 13 6 7 1014.5 1014.5 0.0
02/01:00am 3.1 -1.4 2.1 93 0.4 NNE 15 17 8 9 1014.7 1014.7 0.0
02/12:30am 2.6 -1.3 1.3 91 0.5 NE 11 15 6 8 1014.7 1014.7 0.0
02/12:00am 3.5 -0.2 2.2 91 0.5 ENE 11 13 6 7 1015.1 1015.1 0.0
 
Date/Time
EST
Temp
°C
App
Temp
°C
Dew
Point
Rel
Hum
%
Delta-T
°C
Wind Press
QNH
hPa
Press
MSL
hPa
Rain
since 9 am
mm
Dir
 
Spd
km/h
Gust
km/h
Spd
kts
Gust
kts
01/11:30pm 3.4 0.6 2.2 92 0.5 ENE 6 7 3 4 1015.2 1015.2 0.0
01/11:00pm 2.8 -1.0 1.9 94 0.4 NE 11 13 6 7 1015.5 1015.5 0.0
01/10:30pm 1.4 -2.2 0.5 94 0.3 NNE 9 11 5 6 1015.7 1015.7 0.0
01/10:00pm 2.0 -1.5 1.1 94 0.3 NNE 9 11 5 6 1015.9 1015.9 0.0
01/09:30pm 2.3 -1.2 1.4 94 0.3 NE 9 9 5 5 1015.7 1015.7 0.0
01/09:00pm 3.1 0.2 2.4 95 0.3 NNE 7 7 4 4 1015.7 1015.7 0.0
01/08:30pm 2.2 -1.3 1.2 93 0.4 NNE 9 11 5 6 1015.5 1015.5 0.0
01/08:00pm 3.2 -0.6 2.0 92 0.5 NNE 11 11 6 6 1015.2 1015.2 0.0
01/07:30pm 4.1 1.3 2.9 92 0.5 NNE 7 9 4 5 1015.1 1015.1 0.0
01/07:00pm 4.5 1.7 2.2 85 0.9 N 6 7 3 4 1015.2 1015.2 0.0
01/06:30pm 6.3 3.6 3.5 82 1.2 NE 7 7 4 4 1015.0 1015.0 0.0
01/06:00pm 7.9 4.9 4.1 77 1.6 ENE 9 11 5 6 1014.6 1014.6 0.0
01/05:30pm 9.9 7.5 5.3 73 2.1 SE 7 9 4 5 1014.6 1014.6 0.0
01/05:00pm 11.0 7.5 5.5 69 2.5 SSE 13 15 7 8 1013.9 1013.9 0.0
01/04:30pm 12.0 9.7 5.6 65 3.0 SSW 7 9 4 5 1013.9 1013.9 0.0
01/04:00pm 12.1 8.9 5.0 62 3.3 SSW 11 17 6 9 1014.1 1014.1 0.0

Other Formats:

Comma delimited format used in spreadsheet applications
http://www.bom.gov.au/fwo/IDV60801/IDV60801.95890.axf

JavaScript Object Notation format (JSON) in row-major order
http://www.bom.gov.au/fwo/IDV60801/IDV60801.95890.json